sensor_id;sensor_type;location;lat;lon;timestamp;temperature;humidity
4602;DHT22;2313;48.552;9.370;2022-07-06T00:00:32;16.90;99.90
4602;DHT22;2313;48.552;9.370;2022-07-06T00:02:57;16.90;99.90
4602;DHT22;2313;48.552;9.370;2022-07-06T00:05:23;16.90;99.90
4602;DHT22;2313;48.552;9.370;2022-07-06T00:07:49;16.90;99.90
4602;DHT22;2313;48.552;9.370;2022-07-06T00:10:15;16.90;99.90
4602;DHT22;2313;48.552;9.370;2022-07-06T00:12:41;16.80;99.90
4602;DHT22;2313;48.552;9.370;2022-07-06T00:15:06;16.90;99.90
4602;DHT22;2313;48.552;9.370;2022-07-06T00:17:32;16.90;99.90
4602;DHT22;2313;48.552;9.370;2022-07-06T00:19:58;16.90;99.90
4602;DHT22;2313;48.552;9.370;2022-07-06T00:22:23;16.80;99.90
4602;DHT22;2313;48.552;9.370;2022-07-06T00:24:49;16.60;99.90
4602;DHT22;2313;48.552;9.370;2022-07-06T00:27:14;16.40;99.90
4602;DHT22;2313;48.552;9.370;2022-07-06T00:29:40;16.50;99.90
4602;DHT22;2313;48.552;9.370;2022-07-06T00:32:12;16.60;99.90
4602;DHT22;2313;48.552;9.370;2022-07-06T00:34:38;16.60;99.90
4602;DHT22;2313;48.552;9.370;2022-07-06T00:37:07;16.50;99.90
4602;DHT22;2313;48.552;9.370;2022-07-06T00:39:33;16.50;99.90
4602;DHT22;2313;48.552;9.370;2022-07-06T00:41:59;16.60;99.90
4602;DHT22;2313;48.552;9.370;2022-07-06T00:44:25;16.70;99.90
4602;DHT22;2313;48.552;9.370;2022-07-06T00:46:51;16.60;99.90
4602;DHT22;2313;48.552;9.370;2022-07-06T00:49:16;16.50;99.90
4602;DHT22;2313;48.552;9.370;2022-07-06T00:52:01;16.30;99.90
4602;DHT22;2313;48.552;9.370;2022-07-06T00:54:31;16.20;99.90
4602;DHT22;2313;48.552;9.370;2022-07-06T00:56:57;15.90;99.90
4602;DHT22;2313;48.552;9.370;2022-07-06T00:59:24;15.80;99.90
4602;DHT22;2313;48.552;9.370;2022-07-06T01:01:50;15.70;99.90
4602;DHT22;2313;48.552;9.370;2022-07-06T01:04:16;15.70;99.90
4602;DHT22;2313;48.552;9.370;2022-07-06T01:06:42;15.80;99.90
4602;DHT22;2313;48.552;9.370;2022-07-06T01:09:08;15.90;99.90
4602;DHT22;2313;48.552;9.370;2022-07-06T01:11:34;15.90;99.90
4602;DHT22;2313;48.552;9.370;2022-07-06T01:14:00;16.00;99.90
4602;DHT22;2313;48.552;9.370;2022-07-06T01:16:26;15.90;99.90
4602;DHT22;2313;48.552;9.370;2022-07-06T01:18:52;15.90;99.90
4602;DHT22;2313;48.552;9.370;2022-07-06T01:21:17;15.80;99.90
4602;DHT22;2313;48.552;9.370;2022-07-06T01:23:45;15.60;99.90
4602;DHT22;2313;48.552;9.370;2022-07-06T01:26:14;15.60;99.90
4602;DHT22;2313;48.552;9.370;2022-07-06T01:28:40;15.60;99.90
4602;DHT22;2313;48.552;9.370;2022-07-06T01:31:14;15.60;99.90
4602;DHT22;2313;48.552;9.370;2022-07-06T01:33:40;15.50;99.90
4602;DHT22;2313;48.552;9.370;2022-07-06T01:36:06;15.30;99.90
4602;DHT22;2313;48.552;9.370;2022-07-06T01:38:32;15.30;99.90
4602;DHT22;2313;48.552;9.370;2022-07-06T01:40:57;15.30;99.90
4602;DHT22;2313;48.552;9.370;2022-07-06T01:43:23;15.30;99.90
4602;DHT22;2313;48.552;9.370;2022-07-06T01:45:48;15.10;99.90
4602;DHT22;2313;48.552;9.370;2022-07-06T01:48:14;15.00;99.90
4602;DHT22;2313;48.552;9.370;2022-07-06T01:50:40;15.00;99.90
4602;DHT22;2313;48.552;9.370;2022-07-06T01:53:05;15.10;99.90
4602;DHT22;2313;48.552;9.370;2022-07-06T01:55:31;15.20;99.90
4602;DHT22;2313;48.552;9.370;2022-07-06T01:57:57;15.30;99.90
4602;DHT22;2313;48.552;9.370;2022-07-06T02:00:22;15.50;99.90
4602;DHT22;2313;48.552;9.370;2022-07-06T02:02:48;15.50;99.90
4602;DHT22;2313;48.552;9.370;2022-07-06T02:05:13;15.50;99.90
4602;DHT22;2313;48.552;9.370;2022-07-06T02:07:39;15.50;99.90
4602;DHT22;2313;48.552;9.370;2022-07-06T02:10:05;15.40;99.90
4602;DHT22;2313;48.552;9.370;2022-07-06T02:12:30;15.30;99.90
4602;DHT22;2313;48.552;9.370;2022-07-06T02:14:56;15.30;99.90
4602;DHT22;2313;48.552;9.370;2022-07-06T02:17:22;15.30;99.90
4602;DHT22;2313;48.552;9.370;2022-07-06T02:19:47;15.30;99.90
4602;DHT22;2313;48.552;9.370;2022-07-06T02:22:13;15.20;99.90
4602;DHT22;2313;48.552;9.370;2022-07-06T02:24:38;15.10;99.90
4602;DHT22;2313;48.552;9.370;2022-07-06T02:27:04;15.20;99.90
4602;DHT22;2313;48.552;9.370;2022-07-06T02:29:30;15.10;99.90
4602;DHT22;2313;48.552;9.370;2022-07-06T02:31:55;15.20;99.90
4602;DHT22;2313;48.552;9.370;2022-07-06T02:34:21;15.20;99.90
4602;DHT22;2313;48.552;9.370;2022-07-06T02:36:46;15.10;99.90
4602;DHT22;2313;48.552;9.370;2022-07-06T02:39:12;15.00;99.90
4602;DHT22;2313;48.552;9.370;2022-07-06T02:41:38;15.00;99.90
4602;DHT22;2313;48.552;9.370;2022-07-06T02:44:03;14.90;99.90
4602;DHT22;2313;48.552;9.370;2022-07-06T02:46:29;14.90;99.90
4602;DHT22;2313;48.552;9.370;2022-07-06T02:48:54;14.60;99.90
4602;DHT22;2313;48.552;9.370;2022-07-06T02:51:20;14.70;99.90
4602;DHT22;2313;48.552;9.370;2022-07-06T02:53:46;14.70;99.90
4602;DHT22;2313;48.552;9.370;2022-07-06T02:56:12;14.50;99.90
4602;DHT22;2313;48.552;9.370;2022-07-06T02:58:37;14.50;99.90
4602;DHT22;2313;48.552;9.370;2022-07-06T03:01:03;14.60;99.90
4602;DHT22;2313;48.552;9.370;2022-07-06T03:03:29;14.60;99.90
4602;DHT22;2313;48.552;9.370;2022-07-06T03:05:54;14.70;99.90
4602;DHT22;2313;48.552;9.370;2022-07-06T03:08:20;14.60;99.90
4602;DHT22;2313;48.552;9.370;2022-07-06T03:10:45;14.70;99.90
4602;DHT22;2313;48.552;9.370;2022-07-06T03:13:11;14.80;99.90
4602;DHT22;2313;48.552;9.370;2022-07-06T03:15:37;14.80;99.90
4602;DHT22;2313;48.552;9.370;2022-07-06T03:18:02;14.80;99.90
4602;DHT22;2313;48.552;9.370;2022-07-06T03:20:28;14.80;99.90
4602;DHT22;2313;48.552;9.370;2022-07-06T03:22:54;14.60;99.90
4602;DHT22;2313;48.552;9.370;2022-07-06T03:25:19;14.60;99.90
4602;DHT22;2313;48.552;9.370;2022-07-06T03:27:45;14.60;99.90
4602;DHT22;2313;48.552;9.370;2022-07-06T03:30:11;14.60;99.90
4602;DHT22;2313;48.552;9.370;2022-07-06T03:32:37;14.50;99.90
4602;DHT22;2313;48.552;9.370;2022-07-06T03:35:02;14.50;99.90
4602;DHT22;2313;48.552;9.370;2022-07-06T03:37:28;14.50;99.90
4602;DHT22;2313;48.552;9.370;2022-07-06T03:39:54;14.50;99.90
4602;DHT22;2313;48.552;9.370;2022-07-06T03:42:19;14.50;99.90
4602;DHT22;2313;48.552;9.370;2022-07-06T03:44:45;14.40;99.90
4602;DHT22;2313;48.552;9.370;2022-07-06T03:47:10;14.60;99.90
4602;DHT22;2313;48.552;9.370;2022-07-06T03:49:36;14.50;99.90
4602;DHT22;2313;48.552;9.370;2022-07-06T03:52:02;14.40;99.90
4602;DHT22;2313;48.552;9.370;2022-07-06T03:54:28;14.40;99.90
4602;DHT22;2313;48.552;9.370;2022-07-06T03:56:53;14.30;99.90
4602;DHT22;2313;48.552;9.370;2022-07-06T03:59:19;14.30;99.90
4602;DHT22;2313;48.552;9.370;2022-07-06T04:01:44;14.30;99.90
4602;DHT22;2313;48.552;9.370;2022-07-06T04:04:10;14.30;99.90
4602;DHT22;2313;48.552;9.370;2022-07-06T04:06:36;14.30;99.90
4602;DHT22;2313;48.552;9.370;2022-07-06T04:09:02;14.30;99.90
4602;DHT22;2313;48.552;9.370;2022-07-06T04:11:27;14.40;99.90
4602;DHT22;2313;48.552;9.370;2022-07-06T04:13:53;14.40;99.90
4602;DHT22;2313;48.552;9.370;2022-07-06T04:16:20;14.60;99.90
4602;DHT22;2313;48.552;9.370;2022-07-06T04:18:45;14.70;99.90
4602;DHT22;2313;48.552;9.370;2022-07-06T04:21:11;14.90;99.90
4602;DHT22;2313;48.552;9.370;2022-07-06T04:23:37;15.00;99.90
4602;DHT22;2313;48.552;9.370;2022-07-06T04:26:02;15.00;99.90
4602;DHT22;2313;48.552;9.370;2022-07-06T04:28:28;15.00;99.90
4602;DHT22;2313;48.552;9.370;2022-07-06T04:30:54;15.00;99.90
4602;DHT22;2313;48.552;9.370;2022-07-06T04:33:20;15.00;99.90
4602;DHT22;2313;48.552;9.370;2022-07-06T04:35:45;15.10;99.90
4602;DHT22;2313;48.552;9.370;2022-07-06T04:38:11;15.00;99.90
4602;DHT22;2313;48.552;9.370;2022-07-06T04:40:36;15.10;99.90
4602;DHT22;2313;48.552;9.370;2022-07-06T04:43:03;15.10;99.90
4602;DHT22;2313;48.552;9.370;2022-07-06T04:45:28;15.10;99.90
4602;DHT22;2313;48.552;9.370;2022-07-06T04:47:54;15.20;99.90
4602;DHT22;2313;48.552;9.370;2022-07-06T04:50:20;15.20;99.90
4602;DHT22;2313;48.552;9.370;2022-07-06T04:52:45;15.20;99.90
4602;DHT22;2313;48.552;9.370;2022-07-06T04:55:11;15.30;99.90
4602;DHT22;2313;48.552;9.370;2022-07-06T04:57:39;15.50;99.90
4602;DHT22;2313;48.552;9.370;2022-07-06T05:00:05;15.60;99.90
4602;DHT22;2313;48.552;9.370;2022-07-06T05:02:31;15.60;99.90
4602;DHT22;2313;48.552;9.370;2022-07-06T05:04:56;15.70;99.90
4602;DHT22;2313;48.552;9.370;2022-07-06T05:07:22;15.90;99.90
4602;DHT22;2313;48.552;9.370;2022-07-06T05:09:48;16.00;99.90
4602;DHT22;2313;48.552;9.370;2022-07-06T05:12:13;16.10;99.90
4602;DHT22;2313;48.552;9.370;2022-07-06T05:14:39;16.20;99.90
4602;DHT22;2313;48.552;9.370;2022-07-06T05:17:05;16.30;99.90
4602;DHT22;2313;48.552;9.370;2022-07-06T05:19:30;16.40;99.90
4602;DHT22;2313;48.552;9.370;2022-07-06T05:21:56;16.50;99.90
4602;DHT22;2313;48.552;9.370;2022-07-06T05:24:22;16.70;99.90
4602;DHT22;2313;48.552;9.370;2022-07-06T05:26:47;16.90;99.90
4602;DHT22;2313;48.552;9.370;2022-07-06T05:29:13;17.00;99.90
4602;DHT22;2313;48.552;9.370;2022-07-06T05:31:38;17.10;99.90
4602;DHT22;2313;48.552;9.370;2022-07-06T05:34:04;17.20;99.90
4602;DHT22;2313;48.552;9.370;2022-07-06T05:36:30;17.40;99.90
4602;DHT22;2313;48.552;9.370;2022-07-06T05:38:55;17.60;99.90
4602;DHT22;2313;48.552;9.370;2022-07-06T05:41:21;17.60;99.90
4602;DHT22;2313;48.552;9.370;2022-07-06T05:43:47;17.70;99.90
4602;DHT22;2313;48.552;9.370;2022-07-06T05:46:12;17.80;99.90
4602;DHT22;2313;48.552;9.370;2022-07-06T05:48:38;17.80;99.90
4602;DHT22;2313;48.552;9.370;2022-07-06T05:51:22;17.80;99.90
4602;DHT22;2313;48.552;9.370;2022-07-06T05:53:47;18.00;99.90
4602;DHT22;2313;48.552;9.370;2022-07-06T05:56:13;18.20;99.90
4602;DHT22;2313;48.552;9.370;2022-07-06T05:58:39;18.20;99.90
4602;DHT22;2313;48.552;9.370;2022-07-06T06:01:05;18.40;99.90
4602;DHT22;2313;48.552;9.370;2022-07-06T06:03:32;18.50;99.90
4602;DHT22;2313;48.552;9.370;2022-07-06T06:05:58;18.50;99.90
4602;DHT22;2313;48.552;9.370;2022-07-06T06:08:24;18.70;99.90
4602;DHT22;2313;48.552;9.370;2022-07-06T06:10:50;18.70;99.90
4602;DHT22;2313;48.552;9.370;2022-07-06T06:13:16;18.80;99.90
4602;DHT22;2313;48.552;9.370;2022-07-06T06:15:42;18.90;99.90
4602;DHT22;2313;48.552;9.370;2022-07-06T06:18:08;18.80;99.90
4602;DHT22;2313;48.552;9.370;2022-07-06T06:20:33;18.90;99.90
4602;DHT22;2313;48.552;9.370;2022-07-06T06:22:59;19.00;99.90
4602;DHT22;2313;48.552;9.370;2022-07-06T06:25:33;19.10;99.90
4602;DHT22;2313;48.552;9.370;2022-07-06T06:28:01;19.10;99.90
4602;DHT22;2313;48.552;9.370;2022-07-06T06:30:26;19.10;99.90
4602;DHT22;2313;48.552;9.370;2022-07-06T06:33:14;19.00;99.90
4602;DHT22;2313;48.552;9.370;2022-07-06T06:35:49;19.10;99.90
4602;DHT22;2313;48.552;9.370;2022-07-06T06:38:16;19.20;99.90
4602;DHT22;2313;48.552;9.370;2022-07-06T06:40:43;19.30;99.90
4602;DHT22;2313;48.552;9.370;2022-07-06T06:43:09;19.30;99.90
4602;DHT22;2313;48.552;9.370;2022-07-06T06:45:35;19.50;99.90
4602;DHT22;2313;48.552;9.370;2022-07-06T06:48:01;19.50;99.90
4602;DHT22;2313;48.552;9.370;2022-07-06T06:50:27;19.50;99.90
4602;DHT22;2313;48.552;9.370;2022-07-06T06:52:52;19.60;99.90
4602;DHT22;2313;48.552;9.370;2022-07-06T06:55:18;19.60;99.90
4602;DHT22;2313;48.552;9.370;2022-07-06T06:57:44;19.60;99.90
4602;DHT22;2313;48.552;9.370;2022-07-06T07:00:11;19.80;99.90
4602;DHT22;2313;48.552;9.370;2022-07-06T07:02:36;19.80;99.90
4602;DHT22;2313;48.552;9.370;2022-07-06T07:05:03;19.80;99.90
4602;DHT22;2313;48.552;9.370;2022-07-06T07:07:29;19.80;99.90
4602;DHT22;2313;48.552;9.370;2022-07-06T07:09:54;19.80;99.90
4602;DHT22;2313;48.552;9.370;2022-07-06T07:12:20;19.80;99.90
4602;DHT22;2313;48.552;9.370;2022-07-06T07:14:45;19.80;99.90
4602;DHT22;2313;48.552;9.370;2022-07-06T07:17:12;19.90;99.90
4602;DHT22;2313;48.552;9.370;2022-07-06T07:19:39;19.90;99.90
4602;DHT22;2313;48.552;9.370;2022-07-06T07:22:05;19.80;99.90
4602;DHT22;2313;48.552;9.370;2022-07-06T07:24:31;19.60;99.90
4602;DHT22;2313;48.552;9.370;2022-07-06T07:26:56;19.70;99.90
4602;DHT22;2313;48.552;9.370;2022-07-06T07:29:22;19.80;99.90
4602;DHT22;2313;48.552;9.370;2022-07-06T07:31:48;19.90;99.90
4602;DHT22;2313;48.552;9.370;2022-07-06T07:34:13;20.10;99.90
4602;DHT22;2313;48.552;9.370;2022-07-06T07:36:39;20.20;99.90
4602;DHT22;2313;48.552;9.370;2022-07-06T07:39:05;20.20;99.90
4602;DHT22;2313;48.552;9.370;2022-07-06T07:41:31;20.20;99.90
4602;DHT22;2313;48.552;9.370;2022-07-06T07:43:56;20.20;99.90
4602;DHT22;2313;48.552;9.370;2022-07-06T07:46:22;20.30;99.90
4602;DHT22;2313;48.552;9.370;2022-07-06T07:48:48;20.30;99.90
4602;DHT22;2313;48.552;9.370;2022-07-06T07:51:14;20.30;99.90
4602;DHT22;2313;48.552;9.370;2022-07-06T07:53:39;20.50;99.90
4602;DHT22;2313;48.552;9.370;2022-07-06T07:56:05;20.50;99.90
4602;DHT22;2313;48.552;9.370;2022-07-06T07:58:31;20.50;99.90
4602;DHT22;2313;48.552;9.370;2022-07-06T08:00:57;20.60;99.90
4602;DHT22;2313;48.552;9.370;2022-07-06T08:03:23;20.50;99.90
4602;DHT22;2313;48.552;9.370;2022-07-06T08:05:48;20.60;99.90
4602;DHT22;2313;48.552;9.370;2022-07-06T08:08:15;20.70;99.90
4602;DHT22;2313;48.552;9.370;2022-07-06T08:10:40;20.60;99.90
4602;DHT22;2313;48.552;9.370;2022-07-06T08:13:06;20.60;99.90
4602;DHT22;2313;48.552;9.370;2022-07-06T08:15:36;20.60;99.90
4602;DHT22;2313;48.552;9.370;2022-07-06T08:18:02;20.80;99.90
4602;DHT22;2313;48.552;9.370;2022-07-06T08:20:28;21.00;99.90
4602;DHT22;2313;48.552;9.370;2022-07-06T08:22:53;20.80;99.90
4602;DHT22;2313;48.552;9.370;2022-07-06T08:25:19;20.80;99.90
4602;DHT22;2313;48.552;9.370;2022-07-06T08:27:45;20.90;99.90
4602;DHT22;2313;48.552;9.370;2022-07-06T08:30:11;21.10;99.90
4602;DHT22;2313;48.552;9.370;2022-07-06T08:32:38;21.30;99.90
4602;DHT22;2313;48.552;9.370;2022-07-06T08:35:05;21.60;99.90
4602;DHT22;2313;48.552;9.370;2022-07-06T08:37:30;21.70;98.90
4602;DHT22;2313;48.552;9.370;2022-07-06T08:39:56;21.80;99.50
4602;DHT22;2313;48.552;9.370;2022-07-06T08:42:27;21.80;97.50
4602;DHT22;2313;48.552;9.370;2022-07-06T08:44:55;21.90;99.90
4602;DHT22;2313;48.552;9.370;2022-07-06T08:47:25;22.10;99.60
4602;DHT22;2313;48.552;9.370;2022-07-06T08:49:51;22.30;98.60
4602;DHT22;2313;48.552;9.370;2022-07-06T08:52:17;22.40;99.90
4602;DHT22;2313;48.552;9.370;2022-07-06T08:54:43;22.50;98.20
4602;DHT22;2313;48.552;9.370;2022-07-06T08:57:09;22.50;96.40
4602;DHT22;2313;48.552;9.370;2022-07-06T08:59:35;22.80;96.30
4602;DHT22;2313;48.552;9.370;2022-07-06T09:02:03;22.80;95.50
4602;DHT22;2313;48.552;9.370;2022-07-06T09:04:30;23.00;96.50
4602;DHT22;2313;48.552;9.370;2022-07-06T09:06:57;23.30;96.50
4602;DHT22;2313;48.552;9.370;2022-07-06T09:09:24;23.50;95.90
4602;DHT22;2313;48.552;9.370;2022-07-06T09:11:50;23.80;96.00
4602;DHT22;2313;48.552;9.370;2022-07-06T09:14:16;23.90;96.20
4602;DHT22;2313;48.552;9.370;2022-07-06T09:16:42;24.00;95.40
4602;DHT22;2313;48.552;9.370;2022-07-06T09:19:11;24.10;94.70
4602;DHT22;2313;48.552;9.370;2022-07-06T09:21:37;24.30;94.80
4602;DHT22;2313;48.552;9.370;2022-07-06T09:24:06;24.40;93.60
4602;DHT22;2313;48.552;9.370;2022-07-06T09:26:33;24.60;93.30
4602;DHT22;2313;48.552;9.370;2022-07-06T09:28:59;24.70;92.90
4602;DHT22;2313;48.552;9.370;2022-07-06T09:31:25;24.90;92.10
4602;DHT22;2313;48.552;9.370;2022-07-06T09:34:09;25.10;92.50
4602;DHT22;2313;48.552;9.370;2022-07-06T09:36:46;25.10;88.80
4602;DHT22;2313;48.552;9.370;2022-07-06T09:41:51;25.30;90.10
4602;DHT22;2313;48.552;9.370;2022-07-06T09:44:22;25.60;89.90
4602;DHT22;2313;48.552;9.370;2022-07-06T09:46:48;25.80;90.50
4602;DHT22;2313;48.552;9.370;2022-07-06T09:49:20;26.00;87.80
4602;DHT22;2313;48.552;9.370;2022-07-06T09:51:48;26.00;84.70
4602;DHT22;2313;48.552;9.370;2022-07-06T09:54:16;26.10;85.40
4602;DHT22;2313;48.552;9.370;2022-07-06T09:56:43;26.40;87.50
4602;DHT22;2313;48.552;9.370;2022-07-06T09:59:15;26.70;85.20
4602;DHT22;2313;48.552;9.370;2022-07-06T10:01:41;26.80;83.50
4602;DHT22;2313;48.552;9.370;2022-07-06T10:04:08;26.90;84.00
4602;DHT22;2313;48.552;9.370;2022-07-06T10:06:35;26.80;82.70
4602;DHT22;2313;48.552;9.370;2022-07-06T10:09:02;26.90;82.80
4602;DHT22;2313;48.552;9.370;2022-07-06T10:11:34;26.90;80.80
4602;DHT22;2313;48.552;9.370;2022-07-06T10:14:05;26.90;80.30
4602;DHT22;2313;48.552;9.370;2022-07-06T10:16:30;27.20;80.80
4602;DHT22;2313;48.552;9.370;2022-07-06T10:18:57;27.30;79.10
4602;DHT22;2313;48.552;9.370;2022-07-06T10:21:24;27.10;78.60
4602;DHT22;2313;48.552;9.370;2022-07-06T10:23:51;27.20;77.90
4602;DHT22;2313;48.552;9.370;2022-07-06T10:26:18;27.30;77.30
4602;DHT22;2313;48.552;9.370;2022-07-06T10:28:47;27.50;75.80
4602;DHT22;2313;48.552;9.370;2022-07-06T10:31:16;27.60;74.80
4602;DHT22;2313;48.552;9.370;2022-07-06T10:33:43;27.50;74.60
4602;DHT22;2313;48.552;9.370;2022-07-06T10:36:10;27.70;72.00
4602;DHT22;2313;48.552;9.370;2022-07-06T10:38:36;27.70;73.00
4602;DHT22;2313;48.552;9.370;2022-07-06T10:41:08;28.00;73.60
4602;DHT22;2313;48.552;9.370;2022-07-06T10:43:42;27.90;72.30
4602;DHT22;2313;48.552;9.370;2022-07-06T10:46:10;27.90;71.90
4602;DHT22;2313;48.552;9.370;2022-07-06T10:48:47;27.20;72.90
4602;DHT22;2313;48.552;9.370;2022-07-06T10:51:25;26.60;73.10
4602;DHT22;2313;48.552;9.370;2022-07-06T10:53:59;26.80;74.60
4602;DHT22;2313;48.552;9.370;2022-07-06T10:59:12;28.00;73.10
4602;DHT22;2313;48.552;9.370;2022-07-06T11:01:38;28.30;72.50
4602;DHT22;2313;48.552;9.370;2022-07-06T11:04:06;28.30;68.60
4602;DHT22;2313;48.552;9.370;2022-07-06T11:06:34;28.30;69.10
4602;DHT22;2313;48.552;9.370;2022-07-06T11:09:02;28.40;70.30
4602;DHT22;2313;48.552;9.370;2022-07-06T11:14:18;27.70;69.70
4602;DHT22;2313;48.552;9.370;2022-07-06T11:19:19;26.80;73.80
4602;DHT22;2313;48.552;9.370;2022-07-06T11:21:52;27.10;73.30
4602;DHT22;2313;48.552;9.370;2022-07-06T11:24:20;26.90;72.80
4602;DHT22;2313;48.552;9.370;2022-07-06T11:26:48;27.00;73.50
4602;DHT22;2313;48.552;9.370;2022-07-06T11:29:16;27.50;75.00
4602;DHT22;2313;48.552;9.370;2022-07-06T11:31:44;27.90;75.20
4602;DHT22;2313;48.552;9.370;2022-07-06T11:34:12;28.20;72.00
4602;DHT22;2313;48.552;9.370;2022-07-06T11:36:40;28.40;71.80
4602;DHT22;2313;48.552;9.370;2022-07-06T11:39:06;28.50;71.40
4602;DHT22;2313;48.552;9.370;2022-07-06T11:41:33;28.60;69.30
4602;DHT22;2313;48.552;9.370;2022-07-06T11:43:59;28.80;68.90
4602;DHT22;2313;48.552;9.370;2022-07-06T11:46:32;28.60;67.50
4602;DHT22;2313;48.552;9.370;2022-07-06T11:49:06;28.30;69.50
4602;DHT22;2313;48.552;9.370;2022-07-06T11:51:37;28.00;70.70
4602;DHT22;2313;48.552;9.370;2022-07-06T11:54:21;28.10;69.40
4602;DHT22;2313;48.552;9.370;2022-07-06T11:56:56;28.20;68.60
4602;DHT22;2313;48.552;9.370;2022-07-06T11:59:34;27.90;69.80
4602;DHT22;2313;48.552;9.370;2022-07-06T12:02:00;28.20;67.50
4602;DHT22;2313;48.552;9.370;2022-07-06T12:04:26;28.40;67.80
4602;DHT22;2313;48.552;9.370;2022-07-06T12:06:52;28.60;69.30
4602;DHT22;2313;48.552;9.370;2022-07-06T12:09:17;27.70;68.90
4602;DHT22;2313;48.552;9.370;2022-07-06T12:11:46;27.20;70.90
4602;DHT22;2313;48.552;9.370;2022-07-06T12:14:20;27.60;71.60
4602;DHT22;2313;48.552;9.370;2022-07-06T12:16:47;28.20;70.40
4602;DHT22;2313;48.552;9.370;2022-07-06T12:19:13;28.40;69.90
4602;DHT22;2313;48.552;9.370;2022-07-06T12:21:44;28.10;70.80
4602;DHT22;2313;48.552;9.370;2022-07-06T12:24:10;27.60;71.40
4602;DHT22;2313;48.552;9.370;2022-07-06T12:26:41;27.30;71.30
4602;DHT22;2313;48.552;9.370;2022-07-06T12:29:09;27.20;71.70
4602;DHT22;2313;48.552;9.370;2022-07-06T12:31:56;26.60;74.00
4602;DHT22;2313;48.552;9.370;2022-07-06T12:34:29;26.10;70.90
4602;DHT22;2313;48.552;9.370;2022-07-06T12:37:09;26.30;74.30
4602;DHT22;2313;48.552;9.370;2022-07-06T12:39:46;26.80;74.20
4602;DHT22;2313;48.552;9.370;2022-07-06T12:42:14;27.40;72.00
4602;DHT22;2313;48.552;9.370;2022-07-06T12:44:45;27.00;73.80
4602;DHT22;2313;48.552;9.370;2022-07-06T12:47:12;26.60;73.10
4602;DHT22;2313;48.552;9.370;2022-07-06T12:49:38;26.30;76.40
4602;DHT22;2313;48.552;9.370;2022-07-06T12:52:11;26.10;76.40
4602;DHT22;2313;48.552;9.370;2022-07-06T12:54:45;26.20;76.30
4602;DHT22;2313;48.552;9.370;2022-07-06T12:57:12;26.00;77.70
4602;DHT22;2313;48.552;9.370;2022-07-06T12:59:54;25.90;79.20
4602;DHT22;2313;48.552;9.370;2022-07-06T13:02:30;26.40;79.30
4602;DHT22;2313;48.552;9.370;2022-07-06T13:05:04;27.10;76.30
4602;DHT22;2313;48.552;9.370;2022-07-06T13:07:31;27.30;76.90
4602;DHT22;2313;48.552;9.370;2022-07-06T13:09:57;27.40;73.70
4602;DHT22;2313;48.552;9.370;2022-07-06T13:12:23;26.90;73.90
4602;DHT22;2313;48.552;9.370;2022-07-06T13:14:50;26.40;76.40
4602;DHT22;2313;48.552;9.370;2022-07-06T13:17:16;26.30;77.40
4602;DHT22;2313;48.552;9.370;2022-07-06T13:19:41;26.30;76.60
4602;DHT22;2313;48.552;9.370;2022-07-06T13:22:07;26.00;77.20
4602;DHT22;2313;48.552;9.370;2022-07-06T13:24:33;26.10;78.20
4602;DHT22;2313;48.552;9.370;2022-07-06T13:26:59;26.60;78.80
4602;DHT22;2313;48.552;9.370;2022-07-06T13:29:25;26.90;77.40
4602;DHT22;2313;48.552;9.370;2022-07-06T13:31:51;27.30;78.00
4602;DHT22;2313;48.552;9.370;2022-07-06T13:34:17;27.50;74.50
4602;DHT22;2313;48.552;9.370;2022-07-06T13:36:43;27.60;75.00
4602;DHT22;2313;48.552;9.370;2022-07-06T13:39:09;27.50;74.30
4602;DHT22;2313;48.552;9.370;2022-07-06T13:41:35;27.50;75.70
4602;DHT22;2313;48.552;9.370;2022-07-06T13:44:01;27.60;75.80
4602;DHT22;2313;48.552;9.370;2022-07-06T13:46:28;27.50;74.90
4602;DHT22;2313;48.552;9.370;2022-07-06T13:48:54;27.50;76.00
4602;DHT22;2313;48.552;9.370;2022-07-06T13:51:20;27.50;76.30
4602;DHT22;2313;48.552;9.370;2022-07-06T13:53:46;27.60;76.30
4602;DHT22;2313;48.552;9.370;2022-07-06T13:56:12;27.40;75.20
4602;DHT22;2313;48.552;9.370;2022-07-06T13:58:37;26.90;75.30
4602;DHT22;2313;48.552;9.370;2022-07-06T14:01:04;26.40;77.10
4602;DHT22;2313;48.552;9.370;2022-07-06T14:03:30;26.30;78.40
4602;DHT22;2313;48.552;9.370;2022-07-06T14:05:57;26.20;79.30
4602;DHT22;2313;48.552;9.370;2022-07-06T14:08:29;25.80;79.00
4602;DHT22;2313;48.552;9.370;2022-07-06T14:10:55;25.50;80.90
4602;DHT22;2313;48.552;9.370;2022-07-06T14:13:21;25.50;81.60
4602;DHT22;2313;48.552;9.370;2022-07-06T14:15:48;25.90;82.20
4602;DHT22;2313;48.552;9.370;2022-07-06T14:18:15;26.00;81.10
4602;DHT22;2313;48.552;9.370;2022-07-06T14:20:43;26.40;79.20
4602;DHT22;2313;48.552;9.370;2022-07-06T14:23:10;26.30;79.60
4602;DHT22;2313;48.552;9.370;2022-07-06T14:25:36;26.00;79.30
4602;DHT22;2313;48.552;9.370;2022-07-06T14:28:02;25.70;79.90
4602;DHT22;2313;48.552;9.370;2022-07-06T14:30:28;25.70;80.10
4602;DHT22;2313;48.552;9.370;2022-07-06T14:32:57;25.80;79.60
4602;DHT22;2313;48.552;9.370;2022-07-06T14:35:23;25.90;80.80
4602;DHT22;2313;48.552;9.370;2022-07-06T14:37:50;26.00;84.60
4602;DHT22;2313;48.552;9.370;2022-07-06T14:40:16;25.80;82.10
4602;DHT22;2313;48.552;9.370;2022-07-06T14:42:42;25.80;80.90
4602;DHT22;2313;48.552;9.370;2022-07-06T14:45:08;25.50;81.00
4602;DHT22;2313;48.552;9.370;2022-07-06T14:47:34;25.60;82.40
4602;DHT22;2313;48.552;9.370;2022-07-06T14:50:02;25.50;81.80
4602;DHT22;2313;48.552;9.370;2022-07-06T14:52:27;25.10;82.70
4602;DHT22;2313;48.552;9.370;2022-07-06T14:54:53;25.00;83.30
4602;DHT22;2313;48.552;9.370;2022-07-06T14:57:19;25.00;83.90
4602;DHT22;2313;48.552;9.370;2022-07-06T14:59:45;24.90;84.10
4602;DHT22;2313;48.552;9.370;2022-07-06T15:02:14;24.90;82.80
4602;DHT22;2313;48.552;9.370;2022-07-06T15:04:39;24.70;84.00
4602;DHT22;2313;48.552;9.370;2022-07-06T15:07:05;24.80;83.50
4602;DHT22;2313;48.552;9.370;2022-07-06T15:09:31;24.80;82.30
4602;DHT22;2313;48.552;9.370;2022-07-06T15:11:58;24.70;84.30
4602;DHT22;2313;48.552;9.370;2022-07-06T15:14:23;25.10;85.60
4602;DHT22;2313;48.552;9.370;2022-07-06T15:16:49;25.30;83.00
4602;DHT22;2313;48.552;9.370;2022-07-06T15:19:17;25.30;81.90
4602;DHT22;2313;48.552;9.370;2022-07-06T15:21:43;25.30;83.00
4602;DHT22;2313;48.552;9.370;2022-07-06T15:24:09;25.10;83.60
4602;DHT22;2313;48.552;9.370;2022-07-06T15:26:34;25.10;83.80
4602;DHT22;2313;48.552;9.370;2022-07-06T15:29:00;25.20;83.40
4602;DHT22;2313;48.552;9.370;2022-07-06T15:31:26;25.10;83.70
4602;DHT22;2313;48.552;9.370;2022-07-06T15:33:51;25.20;84.00
4602;DHT22;2313;48.552;9.370;2022-07-06T15:36:17;25.20;82.50
4602;DHT22;2313;48.552;9.370;2022-07-06T15:38:43;25.20;80.90
4602;DHT22;2313;48.552;9.370;2022-07-06T15:41:08;25.20;82.90
4602;DHT22;2313;48.552;9.370;2022-07-06T15:43:34;25.30;82.50
4602;DHT22;2313;48.552;9.370;2022-07-06T15:46:02;25.20;81.30
4602;DHT22;2313;48.552;9.370;2022-07-06T15:48:29;24.80;81.50
4602;DHT22;2313;48.552;9.370;2022-07-06T15:50:55;24.60;81.90
4602;DHT22;2313;48.552;9.370;2022-07-06T15:53:22;24.60;83.00
4602;DHT22;2313;48.552;9.370;2022-07-06T15:55:51;24.50;82.70
4602;DHT22;2313;48.552;9.370;2022-07-06T15:58:17;24.50;83.50
4602;DHT22;2313;48.552;9.370;2022-07-06T16:00:43;24.50;82.90
4602;DHT22;2313;48.552;9.370;2022-07-06T16:03:09;24.50;82.10
4602;DHT22;2313;48.552;9.370;2022-07-06T16:05:35;24.40;82.20
4602;DHT22;2313;48.552;9.370;2022-07-06T16:08:01;24.30;81.00
4602;DHT22;2313;48.552;9.370;2022-07-06T16:10:27;24.10;81.90